Time;durP1;ratioP1;P1;durP2;ratioP2;P2;SDS_P1;SDS_P2;PMS_P1;PMS_P2;Temp;Humidity;BMP_temperature;BMP_pressure;BME280_temperature;BME280_humidity;BME280_pressure;Samples;Min_cycle;Max_cycle;Signal;HPM_P1;HPM_P2
2023/02/11 00:01:30;;;;;;;5.13;1.90;;;;;;;;;;5050377;28;20037;-66
2023/02/11 00:03:57;;;;;;;3.30;1.65;;;;;;;;;;5050720;28;20465;-66
2023/02/11 00:06:25;;;;;;;4.88;1.60;;;;;;;;;;5050309;28;20417;-61
2023/02/11 00:08:51;;;;;;;5.47;1.90;;;;;;;;;;5050739;28;20032;-66
2023/02/11 00:11:17;;;;;;;4.13;1.40;;;;;;;;;;5050410;28;20036;-66
2023/02/11 00:13:44;;;;;;;3.58;1.50;;;;;;;;;;5051147;28;20029;-65
2023/02/11 00:16:12;;;;;;;5.75;1.90;;;;;;;;;;5050926;28;20017;-64
2023/02/11 00:18:38;;;;;;;3.58;1.65;;;;;;;;;;5050449;28;20393;-63
2023/02/11 00:21:07;;;;;;;5.95;2.08;;;;;;;;;;5050714;28;20033;-65
2023/02/11 00:23:33;;;;;;;3.00;1.55;;;;;;;;;;5050552;28;20079;-66
2023/02/11 00:25:59;;;;;;;3.40;1.85;;;;;;;;;;5050531;28;20401;-65
2023/02/11 00:28:25;;;;;;;5.70;2.05;;;;;;;;;;5050399;28;20091;-66
2023/02/11 00:30:58;;;;;;;3.40;1.70;;;;;;;;;;5050367;28;20075;-65
2023/02/11 00:33:24;;;;;;;3.60;1.48;;;;;;;;;;5051012;28;20021;-66
2023/02/11 00:35:50;;;;;;;6.55;2.05;;;;;;;;;;5054685;28;20104;-62
2023/02/11 00:38:16;;;;;;;7.05;2.08;;;;;;;;;;5053803;28;20104;-63
2023/02/11 00:40:41;;;;;;;4.53;1.42;;;;;;;;;;5054908;28;20039;-66
2023/02/11 00:43:07;;;;;;;3.65;1.60;;;;;;;;;;5054566;28;20112;-65
2023/02/11 00:45:33;;;;;;;5.45;1.90;;;;;;;;;;5054291;28;20353;-66
2023/02/11 00:47:59;;;;;;;4.25;1.63;;;;;;;;;;5054329;28;20567;-65
2023/02/11 00:50:25;;;;;;;4.20;1.48;;;;;;;;;;5054192;28;20025;-64
2023/02/11 00:52:51;;;;;;;3.80;1.30;;;;;;;;;;5053874;28;20139;-65
2023/02/11 00:55:17;;;;;;;3.80;1.40;;;;;;;;;;5054041;28;20022;-65
2023/02/11 00:57:43;;;;;;;4.55;1.63;;;;;;;;;;5054537;28;20032;-65
2023/02/11 01:00:11;;;;;;;4.25;1.40;;;;;;;;;;5054485;28;20033;-64
2023/02/11 01:02:37;;;;;;;3.88;1.65;;;;;;;;;;5053986;28;20040;-65
2023/02/11 01:05:03;;;;;;;3.72;1.67;;;;;;;;;;5054105;28;20013;-65
2023/02/11 01:07:29;;;;;;;4.22;1.48;;;;;;;;;;5053253;28;20041;-65
2023/02/11 01:09:55;;;;;;;3.13;1.25;;;;;;;;;;5054029;28;20086;-64
2023/02/11 01:12:22;;;;;;;3.08;1.38;;;;;;;;;;5053738;28;20037;-64
2023/02/11 01:14:48;;;;;;;3.97;1.60;;;;;;;;;;5053502;28;20404;-66
2023/02/11 01:17:14;;;;;;;3.70;1.63;;;;;;;;;;5053910;28;20082;-61
2023/02/11 01:19:40;;;;;;;4.50;1.75;;;;;;;;;;5054194;28;20025;-66
2023/02/11 01:22:06;;;;;;;5.80;1.88;;;;;;;;;;5053650;28;20100;-65
2023/02/11 01:24:32;;;;;;;6.68;1.65;;;;;;;;;;5053498;28;20029;-61
2023/02/11 01:26:58;;;;;;;5.53;2.40;;;;;;;;;;5053647;28;20104;-63
2023/02/11 01:29:24;;;;;;;4.70;1.75;;;;;;;;;;5053094;28;20060;-66
2023/02/11 01:31:51;;;;;;;3.88;1.50;;;;;;;;;;5053569;28;20028;-65
2023/02/11 01:34:17;;;;;;;7.90;2.75;;;;;;;;;;5053166;28;20028;-66
2023/02/11 01:36:43;;;;;;;4.10;1.65;;;;;;;;;;5053639;28;20070;-61
2023/02/11 01:39:09;;;;;;;4.70;1.80;;;;;;;;;;5053569;28;20021;-62
2023/02/11 01:41:35;;;;;;;2.70;1.23;;;;;;;;;;5053257;28;20036;-66
2023/02/11 01:44:20;;;;;;;2.85;1.33;;;;;;;;;;5052523;28;20021;-66
2023/02/11 01:46:46;;;;;;;4.65;1.52;;;;;;;;;;5052797;28;20095;-65
2023/02/11 01:49:14;;;;;;;6.20;1.88;;;;;;;;;;5053493;28;20499;-66
2023/02/11 01:51:46;;;;;;;4.53;1.50;;;;;;;;;;5053644;28;20389;-67
2023/02/11 01:59:48;;;;;;;4.45;1.52;;;;;;;;;;5053457;28;20082;-63
2023/02/11 02:02:17;;;;;;;5.25;1.92;;;;;;;;;;5052610;28;20035;-62
2023/02/11 02:04:52;;;;;;;3.83;1.40;;;;;;;;;;5052716;28;20029;-63
2023/02/11 02:07:18;;;;;;;;;;;;;;;;;;5052980;28;20116;-64
2023/02/11 02:09:48;;;;;;;3.85;1.50;;;;;;;;;;5053029;28;20058;-61
2023/02/11 02:12:14;;;;;;;4.13;1.50;;;;;;;;;;5052092;28;20154;-62
2023/02/11 02:14:40;;;;;;;3.85;1.75;;;;;;;;;;5053150;28;20139;-66
2023/02/11 02:17:07;;;;;;;3.65;1.70;;;;;;;;;;5052738;28;20521;-63
2023/02/11 02:19:50;;;;;;;3.72;1.60;;;;;;;;;;5052475;28;20104;-61
2023/02/11 02:22:19;;;;;;;3.47;1.48;;;;;;;;;;5052496;28;20547;-62
2023/02/11 02:25:03;;;;;;;5.50;1.92;;;;;;;;;;5052550;28;20436;-66
2023/02/11 02:27:48;;;;;;;4.18;1.33;;;;;;;;;;5051796;28;20178;-66
2023/02/11 02:30:29;;;;;;;4.85;1.63;;;;;;;;;;5052763;28;20075;-62
2023/02/11 02:33:06;;;;;;;4.50;1.40;;;;;;;;;;5052506;28;20104;-65
2023/02/11 02:35:37;;;;;;;4.25;2.00;;;;;;;;;;5052256;28;20025;-63
2023/02/11 02:38:12;;;;;;;4.15;1.45;;;;;;;;;;5052415;28;20041;-62
2023/02/11 02:40:48;;;;;;;3.85;1.52;;;;;;;;;;5051910;28;20477;-65
2023/02/11 02:43:14;;;;;;;3.53;1.65;;;;;;;;;;5052298;28;20029;-61
2023/02/11 02:45:40;;;;;;;4.35;1.50;;;;;;;;;;5052571;28;20017;-61
2023/02/11 02:48:06;;;;;;;6.72;1.70;;;;;;;;;;5052039;28;20154;-63
2023/02/11 02:50:34;;;;;;;3.63;1.50;;;;;;;;;;5051898;28;20029;-62
2023/02/11 02:53:11;;;;;;;3.60;1.73;;;;;;;;;;5052062;28;20489;-62
2023/02/11 02:55:40;;;;;;;4.20;1.73;;;;;;;;;;5050966;28;20120;-65
2023/02/11 02:58:15;;;;;;;5.45;1.58;;;;;;;;;;5051615;28;20546;-65
2023/02/11 03:00:44;;;;;;;6.07;1.55;;;;;;;;;;5052230;28;20393;-62
2023/02/11 03:03:25;;;;;;;6.13;1.80;;;;;;;;;;5052181;28;20504;-62
2023/02/11 03:06:03;;;;;;;4.07;1.80;;;;;;;;;;5051493;28;20032;-65
2023/02/11 03:08:36;;;;;;;3.70;1.60;;;;;;;;;;5051162;28;20508;-64
2023/02/11 03:11:03;;;;;;;3.92;1.45;;;;;;;;;;5051749;28;20021;-64
2023/02/11 03:13:33;;;;;;;7.93;1.60;;;;;;;;;;5051581;28;20219;-66
2023/02/11 03:16:01;;;;;;;3.90;1.35;;;;;;;;;;5051705;28;20027;-62
2023/02/11 03:18:28;;;;;;;4.55;1.70;;;;;;;;;;5051354;28;20114;-62
2023/02/11 03:20:56;;;;;;;5.40;1.83;;;;;;;;;;5051689;28;20021;-65
2023/02/11 03:23:40;;;;;;;2.78;1.42;;;;;;;;;;5051213;28;20052;-66
2023/02/11 03:26:18;;;;;;;3.15;1.30;;;;;;;;;;5051552;28;20028;-61
2023/02/11 03:28:59;;;;;;;3.90;1.48;;;;;;;;;;5051345;28;20037;-61
2023/02/11 03:32:00;;;;;;;3.10;1.33;;;;;;;;;;5051088;28;20108;-65
2023/02/11 03:34:33;;;;;;;2.78;1.15;;;;;;;;;;4950915;29;20034;-64
2023/02/11 03:37:05;;;;;;;3.92;1.55;;;;;;;;;;5035417;28;20191;-65
2023/02/11 03:39:36;;;;;;;3.65;1.70;;;;;;;;;;5050734;28;20028;-65
2023/02/11 03:42:03;;;;;;;5.22;1.70;;;;;;;;;;5051257;28;20028;-66
2023/02/11 03:44:32;;;;;;;5.65;1.65;;;;;;;;;;5050788;28;20091;-65
2023/02/11 03:46:59;;;;;;;4.50;1.63;;;;;;;;;;5051100;28;20029;-65
2023/02/11 03:49:26;;;;;;;3.50;1.80;;;;;;;;;;5050922;28;20090;-64
2023/02/11 03:51:53;;;;;;;4.40;1.65;;;;;;;;;;5051130;28;20408;-63
2023/02/11 03:54:23;;;;;;;4.43;1.67;;;;;;;;;;5050731;28;20033;-66
2023/02/11 03:56:53;;;;;;;2.75;1.45;;;;;;;;;;5051121;28;20052;-65
2023/02/11 03:59:20;;;;;;;4.63;1.50;;;;;;;;;;5050487;28;20032;-65
2023/02/11 04:01:46;;;;;;;3.35;1.40;;;;;;;;;;5050688;28;20052;-66
2023/02/11 04:04:12;;;;;;;3.38;1.52;;;;;;;;;;5051011;28;20029;-66
2023/02/11 04:06:38;;;;;;;3.30;1.58;;;;;;;;;;5050311;28;20033;-66
2023/02/11 04:09:04;;;;;;;5.43;1.55;;;;;;;;;;5050593;28;20044;-66
2023/02/11 04:11:30;;;;;;;2.78;1.38;;;;;;;;;;5050618;28;20028;-62
2023/02/11 04:13:56;;;;;;;3.58;1.40;;;;;;;;;;5050288;28;20029;-66
2023/02/11 04:16:22;;;;;;;3.88;1.50;;;;;;;;;;5050593;28;20028;-62
2023/02/11 04:18:48;;;;;;;3.92;1.50;;;;;;;;;;5050800;28;20029;-66
2023/02/11 04:21:14;;;;;;;3.20;1.40;;;;;;;;;;5050645;28;20025;-62
2023/02/11 04:23:40;;;;;;;4.22;1.65;;;;;;;;;;5051085;28;20021;-62
2023/02/11 04:26:06;;;;;;;3.55;1.42;;;;;;;;;;5034641;28;20060;-65
2023/02/11 04:28:33;;;;;;;2.67;0.98;;;;;;;;;;5030428;28;20118;-64
2023/02/11 04:30:59;;;;;;;4.30;1.70;;;;;;;;;;5030809;28;20117;-62
2023/02/11 04:33:25;;;;;;;3.88;1.52;;;;;;;;;;5030468;28;20532;-65
2023/02/11 04:35:51;;;;;;;3.28;1.30;;;;;;;;;;5047539;28;20104;-61
2023/02/11 04:38:17;;;;;;;4.38;1.40;;;;;;;;;;5050355;28;20057;-63
2023/02/11 04:40:43;;;;;;;4.45;1.58;;;;;;;;;;5050906;28;20441;-66
2023/02/11 04:43:09;;;;;;;2.35;1.13;;;;;;;;;;5050623;28;20033;-63
2023/02/11 04:45:35;;;;;;;4.70;1.40;;;;;;;;;;5050389;28;20032;-62
2023/02/11 04:48:02;;;;;;;3.17;1.50;;;;;;;;;;5050501;28;20506;-66
2023/02/11 04:50:28;;;;;;;4.15;1.42;;;;;;;;;;5049630;28;20143;-67
2023/02/11 04:52:54;;;;;;;3.85;1.08;;;;;;;;;;5050515;28;20061;-66
2023/02/11 04:55:20;;;;;;;3.88;1.20;;;;;;;;;;5050229;28;20056;-66
2023/02/11 04:57:46;;;;;;;4.20;1.90;;;;;;;;;;5050140;28;20079;-66
2023/02/11 05:00:13;;;;;;;3.80;1.48;;;;;;;;;;5050655;28;20472;-66
2023/02/11 05:02:39;;;;;;;3.20;1.13;;;;;;;;;;5050183;28;20058;-65
2023/02/11 05:05:05;;;;;;;3.25;1.30;;;;;;;;;;5050336;28;20095;-66
2023/02/11 05:07:31;;;;;;;2.65;1.15;;;;;;;;;;5049807;28;20119;-62
2023/02/11 05:09:57;;;;;;;3.90;1.40;;;;;;;;;;5050341;28;20021;-66
2023/02/11 05:12:23;;;;;;;3.08;1.23;;;;;;;;;;5049715;28;20508;-65
2023/02/11 05:14:49;;;;;;;3.40;1.13;;;;;;;;;;5050264;28;20112;-65
2023/02/11 05:17:15;;;;;;;5.30;1.85;;;;;;;;;;5050415;28;20064;-62
2023/02/11 05:19:41;;;;;;;3.42;1.13;;;;;;;;;;5051494;28;20025;-66
2023/02/11 05:22:07;;;;;;;3.63;1.10;;;;;;;;;;5053990;28;20048;-61
2023/02/11 05:24:33;;;;;;;2.85;1.30;;;;;;;;;;5053565;28;20481;-62
2023/02/11 05:27:00;;;;;;;2.47;1.17;;;;;;;;;;5053259;28;20169;-65
2023/02/11 05:29:26;;;;;;;3.15;1.10;;;;;;;;;;5053141;28;20444;-65
2023/02/11 05:31:52;;;;;;;4.55;1.45;;;;;;;;;;5053697;28;20021;-61
2023/02/11 05:34:18;;;;;;;4.28;1.52;;;;;;;;;;5053282;28;20037;-65
2023/02/11 05:36:43;;;;;;;5.57;1.60;;;;;;;;;;5053847;28;20159;-61
2023/02/11 05:39:09;;;;;;;2.38;1.20;;;;;;;;;;5053501;28;20036;-65
2023/02/11 05:41:36;;;;;;;2.40;1.20;;;;;;;;;;5053216;28;20067;-62
2023/02/11 05:44:02;;;;;;;3.05;1.13;;;;;;;;;;5052772;28;20037;-65
2023/02/11 05:46:28;;;;;;;3.70;1.20;;;;;;;;;;5053092;28;20032;-64
2023/02/11 05:48:55;;;;;;;2.40;1.05;;;;;;;;;;5053215;28;20493;-65
2023/02/11 05:51:21;;;;;;;5.45;1.50;;;;;;;;;;5053159;28;20086;-63
2023/02/11 05:53:47;;;;;;;3.08;1.15;;;;;;;;;;5052944;28;20044;-65
2023/02/11 05:56:13;;;;;;;2.63;1.20;;;;;;;;;;5053446;28;20025;-60
2023/02/11 05:58:39;;;;;;;3.38;1.23;;;;;;;;;;5052909;28;20535;-65
2023/02/11 06:01:05;;;;;;;2.38;1.10;;;;;;;;;;5052724;28;20417;-62
2023/02/11 06:03:31;;;;;;;2.65;1.00;;;;;;;;;;5052660;28;20021;-65
2023/02/11 06:05:57;;;;;;;4.10;1.30;;;;;;;;;;5052926;28;20043;-63
2023/02/11 06:08:23;;;;;;;2.38;1.10;;;;;;;;;;5052732;28;20493;-62
2023/02/11 06:10:49;;;;;;;2.55;1.17;;;;;;;;;;5052960;28;20025;-64
2023/02/11 06:13:17;;;;;;;1.52;0.85;;;;;;;;;;5052743;28;20565;-62
2023/02/11 06:15:43;;;;;;;2.03;0.98;;;;;;;;;;5052574;28;20059;-60
2023/02/11 06:18:09;;;;;;;3.28;1.13;;;;;;;;;;5052768;28;20028;-65
2023/02/11 06:20:39;;;;;;;3.45;1.25;;;;;;;;;;5052522;28;20025;-63
2023/02/11 06:23:05;;;;;;;3.42;1.35;;;;;;;;;;5052751;28;20524;-66
2023/02/11 06:25:31;;;;;;;2.28;1.10;;;;;;;;;;5052399;28;20036;-66
2023/02/11 06:27:57;;;;;;;2.95;1.30;;;;;;;;;;5052554;28;20507;-63
2023/02/11 06:30:23;;;;;;;3.90;1.40;;;;;;;;;;5051837;28;20021;-65
2023/02/11 06:32:49;;;;;;;3.63;1.30;;;;;;;;;;5052487;28;20103;-63
2023/02/11 06:35:16;;;;;;;3.80;1.38;;;;;;;;;;5052409;28;20033;-66
2023/02/11 06:37:42;;;;;;;2.33;0.98;;;;;;;;;;5052642;28;20146;-66
2023/02/11 06:40:08;;;;;;;3.05;1.20;;;;;;;;;;5052433;28;20396;-66
2023/02/11 06:42:37;;;;;;;2.90;1.42;;;;;;;;;;5051593;28;20145;-66
2023/02/11 06:45:04;;;;;;;4.50;1.38;;;;;;;;;;5052175;28;20032;-63
2023/02/11 06:47:30;;;;;;;4.93;1.20;;;;;;;;;;5050999;28;20051;-66
2023/02/11 06:49:56;;;;;;;2.25;1.13;;;;;;;;;;5051898;28;20035;-62
2023/02/11 06:52:22;;;;;;;3.90;1.33;;;;;;;;;;5051508;28;20477;-66
2023/02/11 06:54:48;;;;;;;2.78;1.42;;;;;;;;;;5051633;28;20025;-66
2023/02/11 06:57:14;;;;;;;3.10;1.42;;;;;;;;;;5052038;28;20029;-65
2023/02/11 06:59:40;;;;;;;2.97;1.25;;;;;;;;;;5052261;28;20075;-66
2023/02/11 07:02:08;;;;;;;2.95;1.30;;;;;;;;;;5052007;28;20039;-62
2023/02/11 07:04:34;;;;;;;3.80;1.05;;;;;;;;;;5051834;28;20381;-61
2023/02/11 07:07:00;;;;;;;2.83;1.42;;;;;;;;;;5051776;28;20032;-64
2023/02/11 07:09:26;;;;;;;2.80;1.00;;;;;;;;;;5051406;28;20087;-65
2023/02/11 07:11:52;;;;;;;3.97;1.30;;;;;;;;;;5051966;28;20025;-65
2023/02/11 07:14:18;;;;;;;2.50;1.30;;;;;;;;;;5051502;28;20021;-61
2023/02/11 07:16:44;;;;;;;2.50;1.17;;;;;;;;;;5052182;28;20021;-63
2023/02/11 07:19:10;;;;;;;5.03;1.70;;;;;;;;;;5034266;28;20033;-66
2023/02/11 07:21:36;;;;;;;3.72;1.40;;;;;;;;;;5051575;28;20025;-65
2023/02/11 07:24:06;;;;;;;2.55;1.35;;;;;;;;;;5051249;28;20025;-62
2023/02/11 07:26:32;;;;;;;4.38;1.20;;;;;;;;;;5051421;28;20031;-65
2023/02/11 07:28:58;;;;;;;3.60;1.25;;;;;;;;;;5050716;28;20041;-65
2023/02/11 07:31:25;;;;;;;4.97;1.73;;;;;;;;;;5051405;28;20105;-66
2023/02/11 07:33:52;;;;;;;2.60;1.08;;;;;;;;;;5051596;28;20497;-65
2023/02/11 07:36:18;;;;;;;3.17;1.10;;;;;;;;;;5051363;28;20057;-65
2023/02/11 07:38:44;;;;;;;3.33;0.90;;;;;;;;;;5051790;28;20106;-66
2023/02/11 07:41:12;;;;;;;3.33;1.38;;;;;;;;;;5051718;28;20032;-66
2023/02/11 07:43:38;;;;;;;3.90;1.20;;;;;;;;;;5050199;28;20107;-66
2023/02/11 07:46:09;;;;;;;3.53;1.65;;;;;;;;;;5051319;28;20033;-66
2023/02/11 07:48:35;;;;;;;3.83;1.10;;;;;;;;;;5051109;28;20330;-67
2023/02/11 07:51:24;;;;;;;3.53;1.17;;;;;;;;;;5050379;28;20389;-66
2023/02/11 07:53:50;;;;;;;3.00;1.27;;;;;;;;;;5038479;28;20044;-63
2023/02/11 07:56:17;;;;;;;3.30;1.25;;;;;;;;;;5051007;28;20036;-68
2023/02/11 07:58:43;;;;;;;5.35;1.23;;;;;;;;;;5051444;28;20021;-75
2023/02/11 08:01:11;;;;;;;4.00;1.20;;;;;;;;;;5050732;28;20420;-67
2023/02/11 08:03:37;;;;;;;4.22;1.45;;;;;;;;;;5050958;28;20086;-68
2023/02/11 08:06:11;;;;;;;8.05;1.70;;;;;;;;;;5051001;28;20045;-68
2023/02/11 08:08:37;;;;;;;5.85;2.08;;;;;;;;;;5050704;28;20029;-68
2023/02/11 08:11:10;;;;;;;10.57;1.63;;;;;;;;;;5051158;28;20478;-68
2023/02/11 08:13:37;;;;;;;4.32;1.17;;;;;;;;;;5050926;28;20032;-68
2023/02/11 08:16:03;;;;;;;4.72;1.65;;;;;;;;;;5050601;28;20025;-76
2023/02/11 08:18:30;;;;;;;2.78;1.27;;;;;;;;;;5050827;28;20516;-72
2023/02/11 08:20:56;;;;;;;4.85;1.95;;;;;;;;;;5050946;28;20025;-69
2023/02/11 08:23:22;;;;;;;8.27;2.55;;;;;;;;;;5050702;28;20377;-67
2023/02/11 08:25:48;;;;;;;10.38;2.92;;;;;;;;;;5050951;28;20100;-66
2023/02/11 08:28:14;;;;;;;8.65;2.45;;;;;;;;;;5051131;28;20426;-67
2023/02/11 08:30:40;;;;;;;9.90;2.72;;;;;;;;;;5050458;28;20105;-66
2023/02/11 08:33:06;;;;;;;9.30;3.38;;;;;;;;;;5050079;28;20508;-63
2023/02/11 08:35:34;;;;;;;10.15;2.92;;;;;;;;;;5048651;28;20040;-62
2023/02/11 08:38:00;;;;;;;9.00;3.50;;;;;;;;;;5050352;28;20033;-62
2023/02/11 08:40:26;;;;;;;6.75;3.58;;;;;;;;;;5050528;28;20021;-63
2023/02/11 08:42:52;;;;;;;9.57;3.67;;;;;;;;;;5050715;28;20114;-62
2023/02/11 08:45:18;;;;;;;7.55;3.40;;;;;;;;;;5050448;28;20025;-63
2023/02/11 08:47:44;;;;;;;10.65;4.03;;;;;;;;;;5050458;28;20525;-63
2023/02/11 08:50:10;;;;;;;9.55;3.88;;;;;;;;;;5050698;28;20028;-63
2023/02/11 08:52:36;;;;;;;8.70;3.90;;;;;;;;;;5050424;28;20396;-63
2023/02/11 08:55:02;;;;;;;10.68;4.15;;;;;;;;;;5052217;28;20075;-63
2023/02/11 08:57:28;;;;;;;10.35;4.57;;;;;;;;;;5054141;28;20029;-63
2023/02/11 08:59:54;;;;;;;7.50;4.38;;;;;;;;;;5053765;28;20033;-63
2023/02/11 09:02:20;;;;;;;8.13;4.28;;;;;;;;;;5053629;28;20036;-63
2023/02/11 09:04:46;;;;;;;9.07;4.70;;;;;;;;;;5054238;28;20430;-62
2023/02/11 09:07:12;;;;;;;13.40;4.57;;;;;;;;;;5053781;28;20090;-63
2023/02/11 09:09:38;;;;;;;14.57;4.85;;;;;;;;;;5052244;28;20040;-62
2023/02/11 09:12:04;;;;;;;8.68;4.97;;;;;;;;;;5053745;28;20039;-61
2023/02/11 09:14:30;;;;;;;9.07;4.70;;;;;;;;;;5053948;28;20029;-63
2023/02/11 09:16:56;;;;;;;13.68;5.15;;;;;;;;;;5054144;28;20044;-64
2023/02/11 09:19:22;;;;;;;13.07;5.47;;;;;;;;;;5053657;28;20104;-63
2023/02/11 09:21:48;;;;;;;11.65;5.00;;;;;;;;;;5053822;28;20029;-62
2023/02/11 09:24:15;;;;;;;12.57;4.80;;;;;;;;;;5053653;28;20141;-64
2023/02/11 09:26:42;;;;;;;14.23;4.85;;;;;;;;;;5053803;28;20061;-63
2023/02/11 09:29:08;;;;;;;10.05;4.93;;;;;;;;;;5053760;28;20040;-64
2023/02/11 09:31:34;;;;;;;15.82;6.00;;;;;;;;;;5053493;28;20029;-63
2023/02/11 09:34:03;;;;;;;10.50;5.13;;;;;;;;;;5052882;28;20029;-63
2023/02/11 09:36:30;;;;;;;13.63;5.13;;;;;;;;;;5051751;28;20663;-67
2023/02/11 09:38:57;;;;;;;12.60;4.18;;;;;;;;;;5051738;28;20024;-67
2023/02/11 09:41:23;;;;;;;11.77;5.03;;;;;;;;;;5051506;28;20032;-68
2023/02/11 09:43:51;;;;;;;10.90;4.53;;;;;;;;;;5051634;28;20025;-67
2023/02/11 09:46:18;;;;;;;12.60;4.00;;;;;;;;;;5051227;28;20040;-67
2023/02/11 09:48:45;;;;;;;10.68;4.22;;;;;;;;;;5052359;28;20044;-68
2023/02/11 09:51:30;;;;;;;10.02;3.60;;;;;;;;;;5053316;28;20028;-66
2023/02/11 09:54:00;;;;;;;7.93;3.88;;;;;;;;;;5053395;28;20021;-68
2023/02/11 09:56:27;;;;;;;9.45;3.58;;;;;;;;;;5051717;28;20025;-66
2023/02/11 09:58:53;;;;;;;9.45;3.85;;;;;;;;;;5051281;28;20392;-67
2023/02/11 10:01:22;;;;;;;7.63;2.75;;;;;;;;;;5051430;28;20033;-62
2023/02/11 10:03:54;;;;;;;6.88;2.88;;;;;;;;;;5051790;28;20032;-67
2023/02/11 10:06:38;;;;;;;6.40;2.92;;;;;;;;;;5051569;28;20091;-67
2023/02/11 10:09:22;;;;;;;8.23;3.22;;;;;;;;;;5052292;28;20092;-66
2023/02/11 10:12:00;;;;;;;7.25;2.92;;;;;;;;;;5052897;28;20021;-65
2023/02/11 10:14:53;;;;;;;4.38;2.50;;;;;;;;;;5032926;28;20064;-68
2023/02/11 10:17:37;;;;;;;7.97;2.95;;;;;;;;;;5033254;28;20065;-67
2023/02/11 10:20:19;;;;;;;5.60;2.65;;;;;;;;;;5032980;28;20450;-69
2023/02/11 10:22:48;;;;;;;7.65;2.85;;;;;;;;;;5033246;28;20013;-60
2023/02/11 10:25:25;;;;;;;8.32;2.95;;;;;;;;;;5033107;28;20551;-68
2023/02/11 10:27:52;;;;;;;6.13;2.20;;;;;;;;;;5033066;28;20448;-60
2023/02/11 10:30:18;;;;;;;6.05;2.63;;;;;;;;;;5032808;28;20025;-60
2023/02/11 10:32:50;;;;;;;5.85;2.25;;;;;;;;;;5033135;28;20029;-61
2023/02/11 10:35:20;;;;;;;7.80;2.42;;;;;;;;;;5032557;28;20025;-68
2023/02/11 10:37:46;;;;;;;4.30;2.45;;;;;;;;;;5032808;28;20401;-61
2023/02/11 10:40:19;;;;;;;5.70;2.42;;;;;;;;;;5033060;28;20092;-68
2023/02/11 10:42:47;;;;;;;7.40;2.78;;;;;;;;;;5032672;28;20053;-61
2023/02/11 10:45:46;;;;;;;4.90;2.30;;;;;;;;;;5032922;28;20053;-61
2023/02/11 10:48:30;;;;;;;7.45;2.80;;;;;;;;;;4978735;28;20061;-65
2023/02/11 10:51:14;;;;;;;5.38;2.17;;;;;;;;;;5032355;28;20061;-60
2023/02/11 10:53:40;;;;;;;3.72;2.25;;;;;;;;;;5032340;28;20108;-68
2023/02/11 10:56:07;;;;;;;4.22;2.20;;;;;;;;;;5032324;28;20064;-68
2023/02/11 10:58:33;;;;;;;4.60;2.38;;;;;;;;;;5032059;28;20030;-68
2023/02/11 11:01:00;;;;;;;4.45;2.17;;;;;;;;;;5032172;28;20033;-66
2023/02/11 11:03:28;;;;;;;5.05;2.72;;;;;;;;;;5032919;28;20494;-68
2023/02/11 11:06:01;;;;;;;6.70;2.00;;;;;;;;;;5042881;28;20100;-60
2023/02/11 11:08:38;;;;;;;5.32;2.03;;;;;;;;;;5048188;28;20463;-64
2023/02/11 11:11:06;;;;;;;7.80;2.40;;;;;;;;;;5049353;28;20101;-61
2023/02/11 11:13:36;;;;;;;5.47;2.33;;;;;;;;;;5050847;28;20025;-63
2023/02/11 11:16:07;;;;;;;5.07;2.20;;;;;;;;;;5050878;28;20047;-63
2023/02/11 11:18:33;;;;;;;6.90;2.70;;;;;;;;;;5050024;28;20025;-65
2023/02/11 11:21:00;;;;;;;4.93;2.45;;;;;;;;;;5051045;28;20039;-64
2023/02/11 11:23:27;;;;;;;7.80;2.40;;;;;;;;;;5050343;28;20086;-62
2023/02/11 11:25:59;;;;;;;5.25;2.40;;;;;;;;;;5048935;28;20078;-64
2023/02/11 11:28:27;;;;;;;5.60;2.30;;;;;;;;;;5048834;28;20090;-65
2023/02/11 11:30:55;;;;;;;6.95;2.67;;;;;;;;;;5049228;28;20021;-61
2023/02/11 11:33:23;;;;;;;4.50;2.53;;;;;;;;;;5048785;28;20036;-64
2023/02/11 11:35:58;;;;;;;6.07;3.08;;;;;;;;;;5049268;28;20029;-66
2023/02/11 11:38:24;;;;;;;6.10;2.77;;;;;;;;;;5049473;28;20556;-62
2023/02/11 11:41:10;;;;;;;3.60;2.05;;;;;;;;;;5050623;28;20142;-62
2023/02/11 11:43:36;;;;;;;6.78;2.50;;;;;;;;;;5036679;28;20045;-63
2023/02/11 11:46:05;;;;;;;5.05;2.28;;;;;;;;;;5050193;28;20143;-62
2023/02/11 11:48:32;;;;;;;6.90;2.22;;;;;;;;;;5049520;28;20049;-63
2023/02/11 11:50:58;;;;;;;5.45;2.35;;;;;;;;;;5050524;28;20029;-63
2023/02/11 11:53:35;;;;;;;4.63;2.17;;;;;;;;;;5050279;28;20029;-63
2023/02/11 11:56:16;;;;;;;3.65;2.13;;;;;;;;;;5050371;28;20033;-63
2023/02/11 11:58:42;;;;;;;4.43;1.88;;;;;;;;;;5050749;28;20025;-63
2023/02/11 12:01:27;;;;;;;4.32;2.22;;;;;;;;;;5050155;28;20497;-63
2023/02/11 12:03:52;;;;;;;7.03;2.03;;;;;;;;;;5050378;28;20036;-63
2023/02/11 12:06:37;;;;;;;5.45;1.98;;;;;;;;;;5049995;28;20119;-62
2023/02/11 12:09:07;;;;;;;7.03;2.28;;;;;;;;;;5049242;28;20179;-63
2023/02/11 12:11:46;;;;;;;7.72;2.58;;;;;;;;;;5048658;28;20021;-62
2023/02/11 12:14:15;;;;;;;6.80;2.45;;;;;;;;;;5041775;28;20037;-62
2023/02/11 12:17:01;;;;;;;12.65;2.50;;;;;;;;;;5050573;28;20473;-63
2023/02/11 12:19:27;;;;;;;5.00;1.95;;;;;;;;;;5033624;28;20497;-65
2023/02/11 12:21:53;;;;;;;6.25;2.20;;;;;;;;;;5048342;28;20059;-61
2023/02/11 12:24:28;;;;;;;5.60;2.35;;;;;;;;;;5047989;28;20086;-62
2023/02/11 12:27:04;;;;;;;6.78;1.95;;;;;;;;;;5048451;28;20028;-62
2023/02/11 12:29:33;;;;;;;3.90;1.70;;;;;;;;;;5051643;28;20063;-62
2023/02/11 12:32:02;;;;;;;3.47;1.80;;;;;;;;;;5053674;28;20021;-62
2023/02/11 12:34:41;;;;;;;3.85;2.15;;;;;;;;;;5047257;28;20071;-62
2023/02/11 12:37:16;;;;;;;5.13;1.80;;;;;;;;;;5054037;28;20022;-62
2023/02/11 12:39:44;;;;;;;6.45;2.05;;;;;;;;;;5054498;28;20032;-62
2023/02/11 12:45:23;;;;;;;6.07;2.15;;;;;;;;;;5054476;28;20508;-61
2023/02/11 12:48:07;;;;;;;4.30;2.03;;;;;;;;;;5052832;28;20076;-61
2023/02/11 12:50:42;;;;;;;5.78;1.90;;;;;;;;;;5051238;28;20024;-61
2023/02/11 12:53:08;;;;;;;6.13;1.90;;;;;;;;;;5052158;28;20116;-62
2023/02/11 12:55:36;;;;;;;2.60;1.40;;;;;;;;;;5052248;28;20457;-60
2023/02/11 12:58:03;;;;;;;3.50;2.10;;;;;;;;;;5052762;28;20424;-61
2023/02/11 13:00:35;;;;;;;4.57;1.85;;;;;;;;;;5050222;28;20285;-62
2023/02/11 13:03:17;;;;;;;5.32;1.63;;;;;;;;;;5053009;28;20028;-61
2023/02/11 13:05:43;;;;;;;3.15;1.80;;;;;;;;;;5050831;28;20490;-61
2023/02/11 13:08:15;;;;;;;5.68;1.95;;;;;;;;;;5051575;28;20048;-61
2023/02/11 13:10:42;;;;;;;6.75;1.90;;;;;;;;;;5052013;28;20025;-61
2023/02/11 13:13:20;;;;;;;6.20;2.30;;;;;;;;;;5051567;28;20032;-61
2023/02/11 13:15:51;;;;;;;6.00;2.13;;;;;;;;;;5052728;28;20532;-61
2023/02/11 13:18:50;;;;;;;4.47;1.90;;;;;;;;;;5052369;28;20518;-61
2023/02/11 13:21:16;;;;;;;5.03;2.72;;;;;;;;;;4998127;28;20024;-61
2023/02/11 13:23:51;;;;;;;3.58;2.00;;;;;;;;;;5052952;28;20031;-62
2023/02/11 13:26:23;;;;;;;5.25;2.40;;;;;;;;;;5052447;28;20025;-61
2023/02/11 13:29:08;;;;;;;4.57;2.17;;;;;;;;;;5050229;28;20047;-63
2023/02/11 13:31:34;;;;;;;6.20;2.80;;;;;;;;;;5052435;28;20029;-59
2023/02/11 13:34:00;;;;;;;7.50;2.70;;;;;;;;;;5052427;28;20036;-58
2023/02/11 13:36:26;;;;;;;6.63;2.03;;;;;;;;;;5052309;28;20448;-57
2023/02/11 13:38:54;;;;;;;6.53;2.58;;;;;;;;;;5052500;28;20455;-53
2023/02/11 13:41:26;;;;;;;5.68;2.80;;;;;;;;;;5051106;28;20055;-59
2023/02/11 13:44:03;;;;;;;7.00;2.13;;;;;;;;;;5052000;28;20025;-59
2023/02/11 13:46:48;;;;;;;7.13;2.38;;;;;;;;;;5049153;28;20028;-59
2023/02/11 13:49:18;;;;;;;9.83;2.23;;;;;;;;;;5051459;28;20039;-57
2023/02/11 13:51:44;;;;;;;5.32;2.15;;;;;;;;;;5049342;28;20055;-59
2023/02/11 13:54:18;;;;;;;6.50;2.42;;;;;;;;;;5051374;28;20025;-58
2023/02/11 13:56:46;;;;;;;9.50;2.85;;;;;;;;;;5050138;28;20505;-58
2023/02/11 13:59:25;;;;;;;4.25;2.33;;;;;;;;;;5052614;28;20551;-56
2023/02/11 14:08:57;;;;;;;4.28;2.05;;;;;;;;;;5051077;28;20028;-59
2023/02/11 14:10:51;;;;;;;4.70;2.03;;;;;;;;;;5051675;28;20067;-57
2023/02/11 14:13:21;;;;;;;4.00;2.28;;;;;;;;;;5051263;28;20021;-54
2023/02/11 14:15:47;;;;;;;5.97;2.05;;;;;;;;;;5048524;28;20485;-59
2023/02/11 14:18:32;;;;;;;4.35;1.50;;;;;;;;;;5051898;28;20560;-58
2023/02/11 14:21:29;;;;;;;2.80;1.98;;;;;;;;;;5051877;28;20492;-59
2023/02/11 14:24:19;;;;;;;4.75;2.22;;;;;;;;;;4965973;28;20033;-56
2023/02/11 14:27:11;;;;;;;9.02;2.20;;;;;;;;;;5002490;28;20397;-53
2023/02/11 14:29:37;;;;;;;5.55;2.10;;;;;;;;;;5034375;28;20040;-59
2023/02/11 14:32:29;;;;;;;3.83;1.80;;;;;;;;;;5050711;28;20021;-58
2023/02/11 14:35:00;;;;;;;4.70;2.10;;;;;;;;;;5014264;28;20094;-59
2023/02/11 14:37:27;;;;;;;12.45;2.08;;;;;;;;;;5051689;28;20029;-58
2023/02/11 14:40:28;;;;;;;3.13;1.80;;;;;;;;;;5051729;28;20028;-59
2023/02/11 14:42:56;;;;;;;5.45;1.85;;;;;;;;;;4951703;29;20519;-58
2023/02/11 14:45:24;;;;;;;2.95;1.90;;;;;;;;;;5032299;28;20122;-58
2023/02/11 14:48:06;;;;;;;2.85;1.73;;;;;;;;;;5051343;28;20041;-55
2023/02/11 14:50:42;;;;;;;4.85;2.10;;;;;;;;;;5050932;28;20485;-60
2023/02/11 14:53:12;;;;;;;4.00;1.88;;;;;;;;;;5051443;28;20059;-59
2023/02/11 14:55:41;;;;;;;6.05;1.67;;;;;;;;;;5051337;28;20025;-58
2023/02/11 14:58:13;;;;;;;6.95;2.47;;;;;;;;;;5051030;28;20496;-58
2023/02/11 15:00:48;;;;;;;3.70;1.70;;;;;;;;;;5050900;28;20036;-58
2023/02/11 15:03:14;;;;;;;;;;;;;;;;;;5051453;28;20485;-58
2023/02/11 15:05:40;;;;;;;6.13;1.80;;;;;;;;;;5051715;28;19923;-57
2023/02/11 15:08:14;;;;;;;3.00;1.73;;;;;;;;;;5050765;28;20040;-59
2023/02/11 15:10:43;;;;;;;3.17;1.85;;;;;;;;;;5051282;28;20052;-59
2023/02/11 15:13:16;;;;;;;5.47;1.80;;;;;;;;;;5049835;28;20029;-60